Airfield :
LOGIN :

Register | Disclaimer

   EN    FR    IT 

 










Legend :    VFR   Marginal VFR   IFR   Intensive IFR   Very Intensive IFR
Visi :
Ceiling :
>= 8 km
>= 3000ft
5 to 8 km
1000 to 3000 ft
1500m to 5 km
500 to 1000 ft
800 to 1500m
200 to 500 ft
< 800m
< 200 ft
Symbols :   Thunderstorms  Fog  Heavy snow  Heavy precipitations  Wind > 20 kt
SIGMETs :     Misc.  Thunderstorms  Icing  Turbulence  Mountain Waves  Volcanic Ashes







- Airport Elevation : 26 ft
- IATA code : BIA
- Download approach charts


LFKB - Bastia

CURRENT METAR :
  • 221630Z AUTO 36003KT CAVOK 17/04 Q1024 NOSIG

EXPIRED METARs :
  • 221600Z AUTO 03005KT CAVOK 17/05 Q1025 NOSIG
  • 221530Z AUTO 01004KT 340V050 CAVOK 18/04 Q1025 NOSIG
  • 221500Z AUTO 02006KT 350V060 CAVOK 18/04 Q1025 NOSIG
  • 221400Z AUTO 01006KT 340V040 CAVOK 18/05 Q1026 NOSIG

TAF TAF LFKB
Valid from the 22 at 15:00 until the 23 at 15:00 UTC


221400Z 2215/2315 01010KT CAVOK TX19/2313Z TN07/2305Z
BECMG 2219/2221 24004KT
BECMG 2308/2310 02010KT
ATIS : +33 4 95 59 19 40
No reported NOTAMs for that airfield.



MET'MAP, your aeronautical weather chart ! - Copyright ORBIFLY December 2007 - Disclaimer

ORBIFLY MET'MAP TEAM :

Programming & Development : Alexandra Zaïnal
Concept & Development : Baudouin d'Aumeries
Co-Development & Prog : Marc-Olivier Méhu
Technical & hardware support : Manuel Goepfert

Contact : metmap@orbifly.com




SOURCES & CREDITS :

   NOAA